East Cleveland, Ohio
Current Conditions -  °F | °C
As of 6:53 PM on Tuesday 25 Nov 2014 (Local Time) from KBKL Reporting Station
Overcast Overcast  
Wind Chill: 24°   Ceiling: 2400
Heat Index: 34°   Visibility: 10mi
Dew Point: 26°   Wind: 16mph
Humidity: 73%   Direction: 270°W
Pressure: 30.16"   Gusts: NA
Location:  41.53°N, 81.58°W
Report Text: KBKL 252353Z 27014KT 10SM BKN024 OVC031 01/M03 A3016 RMK AO2 SLP219 T00111033 10028 20011 51022
Loading
Personal Weather Stations






























Interactive Weather Map New forecast layout! Learn more

10-Day Weather Forecast

Advertisements
Track Severe Weather on mobile